createdAt,value
2023-02-11T00:00:47.095Z,20.75
2023-02-11T00:01:48.729Z,20.42
2023-02-11T00:02:50.356Z,20.70
2023-02-11T00:03:52.294Z,20.42
2023-02-11T00:04:53.895Z,21.25
2023-02-11T00:06:02.140Z,19.67
2023-02-11T00:07:05.896Z,21.42
2023-02-11T00:08:07.641Z,19.65
2023-02-11T00:09:10.157Z,19.60
2023-02-11T00:10:11.715Z,18.70
2023-02-11T00:11:14.948Z,21.42
2023-02-11T00:12:19.596Z,21.35
2023-02-11T00:13:21.542Z,21.42
2023-02-11T00:14:23.578Z,22.05
2023-02-11T00:15:25.124Z,21.95
2023-02-11T00:16:26.741Z,20.92
2023-02-11T00:17:28.685Z,21.20
2023-02-11T00:18:30.516Z,20.23
2023-02-11T00:19:32.269Z,22.98
2023-02-11T00:20:34.083Z,22.65
2023-02-11T00:21:38.544Z,21.80
2023-02-11T00:22:40.198Z,22.30
2023-02-11T00:23:42.097Z,23.58
2023-02-11T00:24:55.063Z,21.40
2023-02-11T00:25:56.789Z,20.35
2023-02-11T00:26:58.463Z,21.67
2023-02-11T00:28:00.776Z,20.33
2023-02-11T00:29:04.748Z,21.38
2023-02-11T00:30:08.922Z,21.13
2023-02-11T00:31:10.959Z,20.42
2023-02-11T00:32:12.610Z,22.35
2023-02-11T00:33:14.691Z,20.45
2023-02-11T00:34:16.266Z,19.10
2023-02-11T00:35:17.910Z,21.80
2023-02-11T00:36:21.504Z,20.88
2023-02-11T00:37:23.028Z,21.85
2023-02-11T00:38:25.063Z,20.58
2023-02-11T00:39:27.118Z,21.13
2023-02-11T00:40:28.697Z,20.52
2023-02-11T00:41:30.332Z,22.70
2023-02-11T00:42:31.938Z,22.15
2023-02-11T00:43:33.481Z,21.88
2023-02-11T00:44:35.493Z,21.23
2023-02-11T00:45:37.015Z,21.90
2023-02-11T00:46:38.600Z,21.52
2023-02-11T00:47:40.190Z,20.30
2023-02-11T00:48:41.777Z,20.40
2023-02-11T00:49:43.291Z,21.92
2023-02-11T00:50:44.821Z,22.52
2023-02-11T00:51:46.448Z,20.00
2023-02-11T00:52:47.992Z,19.90
2023-02-11T00:53:49.575Z,22.58
2023-02-11T00:54:51.174Z,20.58
2023-02-11T00:55:52.776Z,19.88
2023-02-11T00:56:54.360Z,20.67
2023-02-11T00:57:55.947Z,18.17
2023-02-11T00:58:57.702Z,20.00
2023-02-11T00:59:59.482Z,21.42
2023-02-11T01:01:01.055Z,21.42
2023-02-11T01:02:03.130Z,22.10
2023-02-11T01:03:04.774Z,20.98
2023-02-11T01:04:06.381Z,22.15
2023-02-11T01:05:08.332Z,23.15
2023-02-11T01:06:10.401Z,22.40
2023-02-11T01:07:11.932Z,23.02
2023-02-11T01:08:13.546Z,21.98
2023-02-11T01:09:15.064Z,22.88
2023-02-11T01:10:16.802Z,23.60
2023-02-11T01:11:19.677Z,22.75
2023-02-11T01:12:21.341Z,22.95
2023-02-11T01:13:23.130Z,22.58
2023-02-11T01:14:24.758Z,21.25
2023-02-11T01:15:26.525Z,20.77
2023-02-11T01:16:28.662Z,21.92
2023-02-11T01:17:30.213Z,21.90
2023-02-11T01:18:31.764Z,22.63
2023-02-11T01:19:33.327Z,21.63
2023-02-11T01:20:34.936Z,23.15
2023-02-11T01:21:36.944Z,21.42
2023-02-11T01:22:39.657Z,22.77
2023-02-11T01:23:41.466Z,20.80
2023-02-11T01:24:43.169Z,22.20
2023-02-11T01:25:47.612Z,18.83
2023-02-11T01:26:49.149Z,21.33
2023-02-11T01:27:50.666Z,19.55
2023-02-11T01:28:52.867Z,20.77
2023-02-11T01:29:54.410Z,21.73
2023-02-11T01:30:56.158Z,19.33
2023-02-11T01:32:01.046Z,20.55
2023-02-11T01:33:02.704Z,20.38
2023-02-11T01:34:04.381Z,19.17
2023-02-11T01:35:06.675Z,21.98
2023-02-11T01:36:08.507Z,20.58
2023-02-11T01:37:10.036Z,21.25
2023-02-11T01:38:16.380Z,20.33
2023-02-11T01:39:18.001Z,22.13
2023-02-11T01:40:19.592Z,20.90
2023-02-11T01:41:21.283Z,20.52
2023-02-11T01:42:23.181Z,19.23
2023-02-11T01:43:25.254Z,22.17
2023-02-11T01:44:29.369Z,21.55
2023-02-11T01:45:49.120Z,20.77
2023-02-11T01:46:51.025Z,19.63
2023-02-11T01:47:52.565Z,21.48
2023-02-11T01:49:10.826Z,19.08
2023-02-11T01:50:12.524Z,20.48
2023-02-11T01:51:20.559Z,20.80
2023-02-11T01:52:25.870Z,19.98
2023-02-11T01:53:47.249Z,19.15
2023-02-11T01:55:12.293Z,20.38
2023-02-11T01:56:32.690Z,20.90
2023-02-11T01:57:35.044Z,22.08
2023-02-11T01:58:36.740Z,20.10
2023-02-11T02:00:01.559Z,21.23
2023-02-11T02:01:03.379Z,21.05
2023-02-11T02:02:07.734Z,21.55
2023-02-11T02:03:20.346Z,19.92
2023-02-11T02:04:22.157Z,21.52
2023-02-11T02:05:35.301Z,22.17
2023-02-11T02:07:03.887Z,20.83
2023-02-11T02:08:13.962Z,20.45
2023-02-11T02:09:27.056Z,22.17
2023-02-11T02:10:28.664Z,20.98
2023-02-11T02:11:30.208Z,18.95
2023-02-11T02:12:31.734Z,20.23
2023-02-11T02:13:34.068Z,20.33
2023-02-11T02:14:41.881Z,19.95
2023-02-11T02:15:48.393Z,19.60
2023-02-11T02:16:50.113Z,19.20
2023-02-11T02:17:59.333Z,20.85
2023-02-11T02:20:30.038Z,19.67
2023-02-11T02:22:10.435Z,19.02
2023-02-11T02:23:27.125Z,20.58
2023-02-11T02:24:48.796Z,20.60
2023-02-11T02:25:52.913Z,20.67
2023-02-11T02:27:16.246Z,20.23
2023-02-11T02:28:48.567Z,16.88
2023-02-11T02:30:09.326Z,19.33
2023-02-11T02:31:28.961Z,19.70
2023-02-11T02:33:25.094Z,19.38
2023-02-11T02:34:32.734Z,18.40
2023-02-11T02:35:43.395Z,19.58
2023-02-11T02:36:54.702Z,19.30
2023-02-11T02:38:08.129Z,20.02
2023-02-11T02:39:20.599Z,21.00
2023-02-11T02:40:25.676Z,19.60
2023-02-11T02:41:29.094Z,17.77
2023-02-11T02:42:30.611Z,21.60
2023-02-11T02:43:32.107Z,20.15
2023-02-11T02:44:33.682Z,19.90
2023-02-11T02:45:35.194Z,19.70
2023-02-11T02:46:37.069Z,20.98
2023-02-11T02:47:38.675Z,21.25
2023-02-11T02:48:40.175Z,20.88
2023-02-11T02:49:41.689Z,20.58
2023-02-11T02:50:43.260Z,19.88
2023-02-11T02:52:05.549Z,21.33
2023-02-11T02:54:07.115Z,19.25
2023-02-11T02:55:41.387Z,17.92
2023-02-11T02:56:51.672Z,17.13
2023-02-11T02:58:11.329Z,16.38
2023-02-11T02:59:58.040Z,18.48
2023-02-11T03:01:08.471Z,19.33
2023-02-11T03:02:12.797Z,20.45
2023-02-11T03:03:34.800Z,19.83
2023-02-11T03:04:40.421Z,20.95
2023-02-11T03:05:49.827Z,19.65
2023-02-11T03:06:58.604Z,21.13
2023-02-11T03:08:06.013Z,20.10
2023-02-11T03:09:12.331Z,20.08
2023-02-11T03:10:31.076Z,20.25
2023-02-11T03:11:32.623Z,18.75
2023-02-11T03:12:34.216Z,17.95
2023-02-11T03:13:36.670Z,21.05
2023-02-11T03:14:38.149Z,20.80
2023-02-11T03:15:42.226Z,21.25
2023-02-11T03:16:43.856Z,20.88
2023-02-11T03:17:47.247Z,21.55
2023-02-11T03:18:51.269Z,20.35
2023-02-11T03:19:52.802Z,19.42
2023-02-11T03:20:54.450Z,20.38
2023-02-11T03:21:57.272Z,21.98
2023-02-11T03:23:04.951Z,20.42
2023-02-11T03:24:09.097Z,21.55
2023-02-11T03:25:10.596Z,20.48
2023-02-11T03:26:21.029Z,21.35
2023-02-11T03:27:33.403Z,19.70
2023-02-11T03:28:36.671Z,20.38
2023-02-11T03:30:07.964Z,21.13
2023-02-11T03:31:22.411Z,20.05
2023-02-11T03:32:29.188Z,18.98
2023-02-11T03:34:02.376Z,19.67
2023-02-11T03:35:18.001Z,19.58
2023-02-11T03:36:23.566Z,20.40
2023-02-11T03:37:30.665Z,18.95
2023-02-11T03:38:34.485Z,18.50
2023-02-11T03:39:41.215Z,19.67
2023-02-11T03:40:42.990Z,18.77
2023-02-11T03:41:44.550Z,19.73
2023-02-11T03:42:52.291Z,20.25
2023-02-11T03:43:56.003Z,19.92
2023-02-11T03:45:01.813Z,19.50
2023-02-11T03:46:03.499Z,19.63
2023-02-11T03:47:05.534Z,20.40
2023-02-11T03:48:14.324Z,18.00
2023-02-11T03:49:16.956Z,19.55
2023-02-11T03:50:18.470Z,20.42
2023-02-11T03:51:20.186Z,18.65
2023-02-11T03:52:22.368Z,18.98
2023-02-11T03:53:24.050Z,19.85
2023-02-11T03:54:29.240Z,19.35
2023-02-11T03:55:30.784Z,17.77
2023-02-11T03:56:33.852Z,17.33
2023-02-11T03:57:35.325Z,20.88
2023-02-11T03:58:36.845Z,19.77
2023-02-11T03:59:51.565Z,19.40
2023-02-11T04:00:53.119Z,19.20
2023-02-11T04:01:54.781Z,20.38
2023-02-11T04:02:56.286Z,18.60
2023-02-11T04:03:57.817Z,20.17
2023-02-11T04:04:59.357Z,20.52
2023-02-11T04:06:00.896Z,20.95
2023-02-11T04:07:02.440Z,21.35
2023-02-11T04:08:04.128Z,20.30
2023-02-11T04:09:05.702Z,20.08
2023-02-11T04:10:07.627Z,20.55
2023-02-11T04:11:09.287Z,19.90
2023-02-11T04:12:10.790Z,19.52
2023-02-11T04:13:12.331Z,21.02
2023-02-11T04:14:13.824Z,21.02
2023-02-11T04:15:15.586Z,20.17
2023-02-11T04:16:17.133Z,18.98
2023-02-11T04:17:18.644Z,20.17
2023-02-11T04:18:20.125Z,20.35
2023-02-11T04:19:21.632Z,19.13
2023-02-11T04:20:23.179Z,20.17
2023-02-11T04:21:24.693Z,18.23
2023-02-11T04:22:26.214Z,21.13
2023-02-11T04:23:27.819Z,19.52
2023-02-11T04:24:29.389Z,18.02
2023-02-11T04:25:30.997Z,20.00
2023-02-11T04:26:32.527Z,18.20
2023-02-11T04:27:34.076Z,19.45
2023-02-11T04:28:36.891Z,18.80
2023-02-11T04:29:38.545Z,19.45
2023-02-11T04:30:40.071Z,19.92
2023-02-11T04:31:41.657Z,20.55
2023-02-11T04:32:43.182Z,19.27
2023-02-11T04:33:44.724Z,19.40
2023-02-11T04:34:46.271Z,19.85
2023-02-11T04:35:47.954Z,20.63
2023-02-11T04:36:49.653Z,19.02
2023-02-11T04:37:51.233Z,18.02
2023-02-11T04:38:52.736Z,20.15
2023-02-11T04:39:54.243Z,17.95
2023-02-11T04:40:55.759Z,18.77
2023-02-11T04:41:57.269Z,18.65
2023-02-11T04:42:58.739Z,19.13
2023-02-11T04:44:00.250Z,19.17
2023-02-11T04:45:01.926Z,18.10
2023-02-11T04:46:03.520Z,20.70
2023-02-11T04:47:05.122Z,21.02
2023-02-11T04:48:06.704Z,18.90
2023-02-11T04:49:08.236Z,18.75
2023-02-11T04:50:09.883Z,20.10
2023-02-11T04:51:11.467Z,18.08
2023-02-11T04:52:12.991Z,20.55
2023-02-11T04:53:14.511Z,20.52
2023-02-11T04:54:16.148Z,19.58
2023-02-11T04:55:17.749Z,18.77
2023-02-11T04:56:19.257Z,19.30
2023-02-11T04:57:20.776Z,17.75
2023-02-11T04:58:22.316Z,19.23
2023-02-11T04:59:23.820Z,19.20
2023-02-11T05:00:25.359Z,17.95
2023-02-11T05:01:27.090Z,18.92
2023-02-11T05:02:28.647Z,20.38
2023-02-11T05:03:30.290Z,20.48
2023-02-11T05:04:31.885Z,19.88
2023-02-11T05:05:33.470Z,20.35
2023-02-11T05:06:34.998Z,21.65
2023-02-11T05:07:36.545Z,20.85
2023-02-11T05:08:38.135Z,20.55
2023-02-11T05:09:39.679Z,19.40
2023-02-11T05:10:41.264Z,17.67
2023-02-11T05:11:43.152Z,19.88
2023-02-11T05:12:44.727Z,19.55
2023-02-11T05:13:46.533Z,17.92
2023-02-11T05:14:48.076Z,19.73
2023-02-11T05:15:50.108Z,19.23
2023-02-11T05:16:52.031Z,19.27
2023-02-11T05:17:53.785Z,20.27
2023-02-11T05:18:55.827Z,18.75
2023-02-11T05:19:57.398Z,20.02
2023-02-11T05:20:58.950Z,18.85
2023-02-11T05:22:03.472Z,20.13
2023-02-11T05:23:05.223Z,18.48
2023-02-11T05:24:07.277Z,20.70
2023-02-11T05:25:08.787Z,19.85
2023-02-11T05:26:10.942Z,19.42
2023-02-11T05:27:13.028Z,19.65
2023-02-11T05:28:14.619Z,19.60
2023-02-11T05:29:16.149Z,20.00
2023-02-11T05:30:17.744Z,20.00
2023-02-11T05:31:19.370Z,18.40
2023-02-11T05:32:21.468Z,19.20
2023-02-11T05:33:23.439Z,19.35
2023-02-11T05:34:26.874Z,21.23
2023-02-11T05:35:28.510Z,19.88
2023-02-11T05:36:33.286Z,19.45
2023-02-11T05:37:35.380Z,18.10
2023-02-11T05:38:37.194Z,16.60
2023-02-11T05:39:41.668Z,18.33
2023-02-11T05:40:43.185Z,20.40
2023-02-11T05:41:44.689Z,18.88
2023-02-11T05:42:46.294Z,20.08
2023-02-11T05:43:53.733Z,18.75
2023-02-11T05:44:55.433Z,21.45
2023-02-11T05:45:57.439Z,19.35
2023-02-11T05:46:59.328Z,18.48
2023-02-11T05:48:00.810Z,19.63
2023-02-11T05:49:02.330Z,19.77
2023-02-11T05:50:03.969Z,16.40
2023-02-11T05:51:05.560Z,18.45
2023-02-11T05:52:10.015Z,18.42
2023-02-11T05:53:11.655Z,19.48
2023-02-11T05:54:13.354Z,18.33
2023-02-11T05:55:14.874Z,19.40
2023-02-11T05:56:16.440Z,18.45
2023-02-11T05:57:17.937Z,18.80
2023-02-11T05:58:19.420Z,17.50
2023-02-11T05:59:20.938Z,17.95
2023-02-11T06:00:22.508Z,18.13
2023-02-11T06:01:24.045Z,18.42
2023-02-11T06:02:25.617Z,19.02
2023-02-11T06:03:27.260Z,17.95
2023-02-11T06:04:31.189Z,16.85
2023-02-11T06:05:32.731Z,16.52
2023-02-11T06:06:34.277Z,16.35
2023-02-11T06:07:35.888Z,18.65
2023-02-11T06:08:39.307Z,18.17
2023-02-11T06:09:40.994Z,18.20
2023-02-11T06:10:45.273Z,17.17
2023-02-11T06:11:46.801Z,18.10
2023-02-11T06:12:48.609Z,19.10
2023-02-11T06:13:50.875Z,18.48
2023-02-11T06:14:52.537Z,18.23
2023-02-11T06:15:58.037Z,15.82
2023-02-11T06:17:02.610Z,18.33
2023-02-11T06:18:04.313Z,17.65
2023-02-11T06:19:05.875Z,18.17
2023-02-11T06:20:08.650Z,17.83
2023-02-11T06:21:11.414Z,18.80
2023-02-11T06:22:13.186Z,17.38
2023-02-11T06:23:15.246Z,17.67
2023-02-11T06:24:28.515Z,18.13
2023-02-11T06:25:38.518Z,18.30
2023-02-11T06:26:40.018Z,18.52
2023-02-11T06:27:41.813Z,18.05
2023-02-11T06:28:43.531Z,17.10
2023-02-11T06:29:45.838Z,17.95
2023-02-11T06:30:47.391Z,17.05
2023-02-11T06:31:48.999Z,17.10
2023-02-11T06:32:51.693Z,17.88
2023-02-11T06:33:55.031Z,18.10
2023-02-11T06:34:57.028Z,18.92
2023-02-11T06:35:58.550Z,16.80
2023-02-11T06:37:00.149Z,16.45
2023-02-11T06:38:02.169Z,17.27
2023-02-11T06:39:03.803Z,17.08
2023-02-11T06:40:06.241Z,18.17
2023-02-11T06:41:10.317Z,16.95
2023-02-11T06:42:11.822Z,18.30
2023-02-11T06:43:13.811Z,18.67
2023-02-11T06:44:15.308Z,18.05
2023-02-11T06:45:16.914Z,16.63
2023-02-11T06:46:18.529Z,18.55
2023-02-11T06:47:20.095Z,16.17
2023-02-11T06:48:22.255Z,17.45
2023-02-11T06:49:23.782Z,17.85
2023-02-11T06:50:25.856Z,18.02
2023-02-11T06:51:28.352Z,19.60
2023-02-11T06:52:29.870Z,17.15
2023-02-11T06:53:32.203Z,17.48
2023-02-11T06:54:33.753Z,17.48
2023-02-11T06:55:35.405Z,16.05
2023-02-11T06:56:39.638Z,17.52
2023-02-11T06:57:41.176Z,18.23
2023-02-11T06:58:42.834Z,17.63
2023-02-11T06:59:44.382Z,17.13
2023-02-11T07:00:46.118Z,17.17
2023-02-11T07:01:47.765Z,18.55
2023-02-11T07:02:49.894Z,17.27
2023-02-11T07:03:52.103Z,18.60
2023-02-11T07:04:53.890Z,20.13
2023-02-11T07:05:55.386Z,18.20
2023-02-11T07:06:56.891Z,18.27
2023-02-11T07:07:58.382Z,18.50
2023-02-11T07:09:00.509Z,17.25
2023-02-11T07:10:04.067Z,17.90
2023-02-11T07:11:10.254Z,19.60
2023-02-11T07:12:11.763Z,20.88
2023-02-11T07:13:13.300Z,19.70
2023-02-11T07:14:15.402Z,19.50
2023-02-11T07:15:16.904Z,17.98
2023-02-11T07:16:18.691Z,17.40
2023-02-11T07:17:20.280Z,17.77
2023-02-11T07:18:21.771Z,17.80
2023-02-11T07:19:23.296Z,17.98
2023-02-11T07:20:25.133Z,18.02
2023-02-11T07:21:26.690Z,16.83
2023-02-11T07:22:28.188Z,18.70
2023-02-11T07:23:29.732Z,18.23
2023-02-11T07:24:31.727Z,17.15
2023-02-11T07:25:33.326Z,17.58
2023-02-11T07:26:34.895Z,18.42
2023-02-11T07:27:36.483Z,16.83
2023-02-11T07:28:38.230Z,17.25
2023-02-11T07:29:39.977Z,16.83
2023-02-11T07:30:41.510Z,17.83
2023-02-11T07:31:43.228Z,19.08
2023-02-11T07:32:44.891Z,17.88
2023-02-11T07:33:46.499Z,19.80
2023-02-11T07:34:48.638Z,27.08
2023-02-11T07:35:50.421Z,24.40
2023-02-11T07:36:52.100Z,21.02
2023-02-11T07:37:53.727Z,18.80
2023-02-11T07:38:55.708Z,18.48
2023-02-11T07:39:57.252Z,18.08
2023-02-11T07:41:02.406Z,18.55
2023-02-11T07:42:04.358Z,17.05
2023-02-11T07:43:05.948Z,18.80
2023-02-11T07:44:07.980Z,17.15
2023-02-11T07:45:09.737Z,16.10
2023-02-11T07:46:13.558Z,18.58
2023-02-11T07:47:15.098Z,18.00
2023-02-11T07:48:16.907Z,16.02
2023-02-11T07:49:18.516Z,16.52
2023-02-11T07:50:19.995Z,17.17
2023-02-11T07:51:28.646Z,16.77
2023-02-11T07:52:30.943Z,15.73
2023-02-11T07:53:32.467Z,15.07
2023-02-11T07:54:33.944Z,16.48
2023-02-11T07:55:35.546Z,17.10
2023-02-11T07:56:37.092Z,17.67
2023-02-11T07:57:38.790Z,16.80
2023-02-11T07:58:42.700Z,16.02
2023-02-11T07:59:44.346Z,15.70
2023-02-11T08:00:46.045Z,16.30
2023-02-11T08:01:47.671Z,15.80
2023-02-11T08:02:49.366Z,15.32
2023-02-11T08:03:51.161Z,16.48
2023-02-11T08:04:52.930Z,15.55
2023-02-11T08:05:54.410Z,16.85
2023-02-11T08:06:59.011Z,15.35
2023-02-11T08:08:00.668Z,16.92
2023-02-11T08:09:07.341Z,17.38
2023-02-11T08:10:08.973Z,17.20
2023-02-11T08:11:23.336Z,16.63
2023-02-11T08:12:24.849Z,16.42
2023-02-11T08:13:27.018Z,14.82
2023-02-11T08:14:28.976Z,16.40
2023-02-11T08:15:30.468Z,17.13
2023-02-11T08:16:33.549Z,16.45
2023-02-11T08:17:36.078Z,18.25
2023-02-11T08:18:37.651Z,16.50
2023-02-11T08:19:39.563Z,14.93
2023-02-11T08:20:41.090Z,16.75
2023-02-11T08:21:43.006Z,15.65
2023-02-11T08:22:44.546Z,15.55
2023-02-11T08:23:46.102Z,17.25
2023-02-11T08:24:49.577Z,15.60
2023-02-11T08:25:52.188Z,16.75
2023-02-11T08:26:53.687Z,16.83
2023-02-11T08:27:55.249Z,16.52
2023-02-11T08:28:56.970Z,15.05
2023-02-11T08:30:00.229Z,15.98
2023-02-11T08:31:08.429Z,16.98
2023-02-11T08:32:10.004Z,17.63
2023-02-11T08:33:11.602Z,15.95
2023-02-11T08:34:14.621Z,16.15
2023-02-11T08:35:16.204Z,16.13
2023-02-11T08:36:22.360Z,16.83
2023-02-11T08:37:24.091Z,16.02
2023-02-11T08:38:25.623Z,13.82
2023-02-11T08:39:27.567Z,13.90
2023-02-11T08:40:29.199Z,14.98
2023-02-11T08:41:31.803Z,14.55
2023-02-11T08:42:33.305Z,16.67
2023-02-11T08:43:35.508Z,16.17
2023-02-11T08:44:37.363Z,16.10
2023-02-11T08:45:39.084Z,14.73
2023-02-11T08:46:40.629Z,16.52
2023-02-11T08:47:42.117Z,15.32
2023-02-11T08:48:44.725Z,15.82
2023-02-11T08:49:46.285Z,16.42
2023-02-11T08:50:47.831Z,16.90
2023-02-11T08:51:49.517Z,18.02
2023-02-11T08:52:52.437Z,16.23
2023-02-11T08:54:55.946Z,18.13
2023-02-11T08:55:57.437Z,18.13
2023-02-11T08:56:58.979Z,17.05
2023-02-11T08:58:00.487Z,16.15
2023-02-11T08:59:02.420Z,13.40
2023-02-11T09:00:05.281Z,15.85
2023-02-11T09:01:14.377Z,14.48
2023-02-11T09:04:18.836Z,13.45
2023-02-11T09:05:20.502Z,14.80
2023-02-11T09:06:22.565Z,14.57
2023-02-11T09:07:24.147Z,15.48
2023-02-11T09:08:25.732Z,14.48
2023-02-11T09:09:27.337Z,14.45
2023-02-11T09:10:29.319Z,14.52
2023-02-11T09:11:34.937Z,14.10
2023-02-11T09:12:36.439Z,14.95
2023-02-11T09:13:38.114Z,15.07
2023-02-11T09:14:39.902Z,14.77
2023-02-11T09:15:41.579Z,14.07
2023-02-11T09:16:43.143Z,14.73
2023-02-11T09:17:44.671Z,15.77
2023-02-11T09:18:46.322Z,14.95
2023-02-11T09:19:47.920Z,14.65
2023-02-11T09:20:49.656Z,14.98
2023-02-11T09:21:51.527Z,14.73
2023-02-11T09:22:53.755Z,14.63
2023-02-11T09:23:55.297Z,14.30
2023-02-11T09:24:57.191Z,15.43
2023-02-11T09:25:58.804Z,14.13
2023-02-11T09:27:00.328Z,14.27
2023-02-11T09:28:01.978Z,13.70
2023-02-11T09:29:03.965Z,13.20
2023-02-11T09:30:06.280Z,14.15
2023-02-11T09:31:08.800Z,16.20
2023-02-11T09:32:10.493Z,14.48
2023-02-11T09:33:12.070Z,15.48
2023-02-11T09:34:13.686Z,14.02
2023-02-11T09:35:15.582Z,14.13
2023-02-11T09:36:28.698Z,15.52
2023-02-11T09:37:30.243Z,15.60
2023-02-11T09:38:32.033Z,14.93
2023-02-11T09:39:33.720Z,19.92
2023-02-11T09:40:35.265Z,18.15
2023-02-11T09:42:07.111Z,19.83
2023-02-11T09:43:14.711Z,12.45
2023-02-11T09:44:23.990Z,13.48
2023-02-11T09:45:27.241Z,13.88
2023-02-11T09:46:32.704Z,14.73
2023-02-11T09:47:35.716Z,13.93
2023-02-11T09:49:43.381Z,14.13
2023-02-11T09:50:54.453Z,13.90
2023-02-11T09:51:59.225Z,13.43
2023-02-11T09:53:06.913Z,13.57
2023-02-11T09:54:31.612Z,12.95
2023-02-11T09:55:43.095Z,13.40
2023-02-11T09:56:44.626Z,14.48
2023-02-11T09:57:46.271Z,13.60
2023-02-11T09:58:47.750Z,14.50
2023-02-11T09:59:49.424Z,12.77
2023-02-11T10:01:05.742Z,13.73
2023-02-11T10:02:19.357Z,13.00
2023-02-11T10:03:44.677Z,13.60
2023-02-11T10:04:51.761Z,12.07
2023-02-11T10:06:20.217Z,14.13
2023-02-11T10:07:29.826Z,14.27
2023-02-11T10:08:49.314Z,13.35
2023-02-11T10:10:03.777Z,13.95
2023-02-11T10:11:22.667Z,13.70
2023-02-11T10:12:31.213Z,13.98
2023-02-11T10:13:54.923Z,14.10
2023-02-11T10:14:59.203Z,13.32
2023-02-11T10:16:33.517Z,14.45
2023-02-11T10:17:49.923Z,12.85
2023-02-11T10:19:19.924Z,14.82
2023-02-11T10:20:34.730Z,14.18
2023-02-11T10:21:44.000Z,13.00
2023-02-11T10:22:55.666Z,13.25
2023-02-11T10:23:59.595Z,12.80
2023-02-11T10:25:01.536Z,13.18
2023-02-11T10:26:03.116Z,13.68
2023-02-11T10:27:12.599Z,13.27
2023-02-11T10:28:18.955Z,13.50
2023-02-11T10:29:33.915Z,13.48
2023-02-11T10:30:41.207Z,13.45
2023-02-11T10:31:43.342Z,16.88
2023-02-11T10:33:05.155Z,14.50
2023-02-11T10:34:10.909Z,14.50
2023-02-11T10:35:21.711Z,13.20
2023-02-11T10:36:26.358Z,13.80
2023-02-11T10:37:27.891Z,13.45
2023-02-11T10:38:29.436Z,13.90
2023-02-11T10:39:32.063Z,12.98
2023-02-11T10:40:33.841Z,13.48
2023-02-11T10:41:37.038Z,14.38
2023-02-11T10:42:39.495Z,13.18
2023-02-11T10:43:41.083Z,12.60
2023-02-11T10:44:59.101Z,13.50
2023-02-11T10:46:00.985Z,11.48
2023-02-11T10:47:05.962Z,13.18
2023-02-11T10:48:37.613Z,12.73
2023-02-11T10:49:39.756Z,12.63
2023-02-11T10:50:41.321Z,13.45
2023-02-11T10:51:42.900Z,12.90
2023-02-11T10:52:44.763Z,12.98
2023-02-11T10:53:47.481Z,12.88
2023-02-11T10:55:03.842Z,12.73
2023-02-11T10:56:11.037Z,12.82
2023-02-11T10:57:19.156Z,13.65
2023-02-11T10:58:31.224Z,12.77
2023-02-11T10:59:40.474Z,13.15
2023-02-11T11:00:42.829Z,12.93
2023-02-11T11:01:49.121Z,12.63
2023-02-11T11:02:55.969Z,13.35
2023-02-11T11:03:59.958Z,14.23
2023-02-11T11:05:19.155Z,13.73
2023-02-11T11:06:31.530Z,13.35
2023-02-11T11:07:34.018Z,12.00
2023-02-11T11:08:49.657Z,12.68
2023-02-11T11:09:55.547Z,13.88
2023-02-11T11:11:23.334Z,14.70
2023-02-11T11:12:45.284Z,16.73
2023-02-11T11:13:52.672Z,13.25
2023-02-11T11:15:16.504Z,13.68
2023-02-11T11:16:34.942Z,13.68
2023-02-11T11:17:37.404Z,14.07
2023-02-11T11:18:39.759Z,13.00
2023-02-11T11:19:41.293Z,13.75
2023-02-11T11:21:04.118Z,13.00
2023-02-11T11:22:05.611Z,13.80
2023-02-11T11:23:27.501Z,13.57
2023-02-11T11:24:53.455Z,13.38
2023-02-11T11:26:13.694Z,13.45
2023-02-11T11:27:19.601Z,12.75
2023-02-11T11:28:25.284Z,14.15
2023-02-11T11:29:40.920Z,12.77
2023-02-11T11:30:42.864Z,13.95
2023-02-11T11:31:52.859Z,13.68
2023-02-11T11:32:54.714Z,13.75
2023-02-11T11:33:57.354Z,14.30
2023-02-11T11:35:00.790Z,14.13
2023-02-11T11:36:08.029Z,13.77
2023-02-11T11:37:27.113Z,15.02
2023-02-11T11:38:29.156Z,13.82
2023-02-11T11:39:32.150Z,14.82
2023-02-11T11:41:35.828Z,13.85
2023-02-11T11:42:38.808Z,14.95
2023-02-11T11:44:41.894Z,14.20
2023-02-11T11:45:56.536Z,14.32
2023-02-11T11:47:16.570Z,13.75
2023-02-11T11:48:35.405Z,13.05
2023-02-11T11:49:58.136Z,14.18
2023-02-11T11:51:05.308Z,12.65
2023-02-11T11:52:06.693Z,14.70
2023-02-11T11:53:16.848Z,14.23
2023-02-11T11:54:18.435Z,12.65
2023-02-11T11:55:22.187Z,12.23
2023-02-11T11:56:29.209Z,14.68
2023-02-11T11:57:31.040Z,14.75
2023-02-11T11:58:33.523Z,14.15
2023-02-11T11:59:35.140Z,14.32
2023-02-11T12:00:58.852Z,14.20
2023-02-11T12:02:08.459Z,13.63
2023-02-11T12:03:22.648Z,13.27
2023-02-11T12:04:38.652Z,14.18
2023-02-11T12:06:09.694Z,14.40
2023-02-11T12:07:17.705Z,15.10
2023-02-11T12:08:38.577Z,14.48
2023-02-11T12:10:15.330Z,14.82
2023-02-11T12:11:21.688Z,13.95
2023-02-11T12:12:42.241Z,14.23
2023-02-11T12:14:04.514Z,13.40
2023-02-11T12:15:09.107Z,14.43
2023-02-11T12:16:24.775Z,14.60
2023-02-11T12:17:53.408Z,13.90
2023-02-11T12:19:14.262Z,13.93
2023-02-11T12:20:32.875Z,14.23
2023-02-11T12:21:46.253Z,14.35
2023-02-11T12:22:53.716Z,13.50
2023-02-11T12:24:24.143Z,13.40
2023-02-11T12:25:29.267Z,13.27
2023-02-11T12:27:08.194Z,12.65
2023-02-11T12:28:39.049Z,12.77
2023-02-11T12:30:02.393Z,13.05
2023-02-11T12:31:28.067Z,13.60
2023-02-11T12:32:51.156Z,13.93
2023-02-11T12:34:07.747Z,12.82
2023-02-11T12:35:15.369Z,12.95
2023-02-11T12:37:01.361Z,13.70
2023-02-11T12:38:26.548Z,13.35
2023-02-11T12:39:36.362Z,13.00
2023-02-11T12:41:03.850Z,13.32
2023-02-11T12:42:36.296Z,13.77
2023-02-11T12:43:39.270Z,14.57
2023-02-11T12:46:20.899Z,13.73
2023-02-11T12:48:00.356Z,14.10
2023-02-11T12:49:23.794Z,13.50
2023-02-11T12:50:41.158Z,13.85
2023-02-11T12:52:07.324Z,13.98
2023-02-11T12:53:46.474Z,13.90
2023-02-11T12:55:10.237Z,14.45
2023-02-11T12:56:16.340Z,12.93
2023-02-11T12:57:36.333Z,14.52
2023-02-11T12:58:44.964Z,14.60
2023-02-11T13:00:07.922Z,13.95
2023-02-11T13:01:24.729Z,14.18
2023-02-11T13:03:11.238Z,13.15
2023-02-11T13:04:14.619Z,13.43
2023-02-11T13:05:26.945Z,14.82
2023-02-11T13:06:37.046Z,14.65
2023-02-11T13:07:43.696Z,15.02
2023-02-11T13:08:54.966Z,14.30
2023-02-11T13:10:00.127Z,12.90
2023-02-11T13:11:14.353Z,13.85
2023-02-11T13:12:34.557Z,15.13
2023-02-11T13:13:56.332Z,13.32
2023-02-11T13:15:00.764Z,14.25
2023-02-11T13:16:09.691Z,14.77
2023-02-11T13:17:22.194Z,12.75
2023-02-11T13:18:40.154Z,14.23
2023-02-11T13:19:45.617Z,14.80
2023-02-11T13:20:54.278Z,14.70
2023-02-11T13:22:17.325Z,13.68
2023-02-11T13:23:43.634Z,13.88
2023-02-11T13:24:49.330Z,13.25
2023-02-11T13:25:55.685Z,14.25
2023-02-11T13:27:31.448Z,13.30
2023-02-11T13:28:40.166Z,13.60
2023-02-11T13:29:58.396Z,15.48
2023-02-11T13:31:03.370Z,13.32
2023-02-11T13:32:14.883Z,13.52
2023-02-11T13:33:19.101Z,14.02
2023-02-11T13:34:46.422Z,13.75
2023-02-11T13:35:51.194Z,13.73
2023-02-11T13:36:56.651Z,13.50
2023-02-11T13:38:21.758Z,13.98
2023-02-11T13:39:23.391Z,14.05
2023-02-11T13:40:35.099Z,13.55
2023-02-11T13:41:40.675Z,13.43
2023-02-11T13:42:49.968Z,14.02
2023-02-11T13:44:11.967Z,11.95
2023-02-11T13:45:36.212Z,12.52
2023-02-11T13:46:57.799Z,14.48
2023-02-11T13:49:01.289Z,13.48
2023-02-11T13:50:04.057Z,13.90
2023-02-11T13:51:08.968Z,13.60
2023-02-11T13:52:29.693Z,13.48
2023-02-11T13:53:48.565Z,14.07
2023-02-11T13:54:51.316Z,14.40
2023-02-11T13:55:54.620Z,12.98
2023-02-11T13:57:21.078Z,13.80
2023-02-11T13:58:28.387Z,13.70
2023-02-11T13:59:32.971Z,13.38
2023-02-11T14:00:34.499Z,13.25
2023-02-11T14:02:14.044Z,14.45
2023-02-11T14:03:41.176Z,13.30
2023-02-11T14:05:20.470Z,13.00
2023-02-11T14:07:05.215Z,13.90
2023-02-11T14:08:25.606Z,13.35
2023-02-11T14:09:35.480Z,13.45
2023-02-11T14:10:42.721Z,13.75
2023-02-11T14:11:51.313Z,13.27
2023-02-11T14:13:30.253Z,13.20
2023-02-11T14:14:33.495Z,12.82
2023-02-11T14:15:40.789Z,13.70
2023-02-11T14:17:00.808Z,13.07
2023-02-11T14:18:02.579Z,12.07
2023-02-11T14:19:04.251Z,12.77
2023-02-11T14:20:56.243Z,13.38
2023-02-11T14:22:23.681Z,13.68
2023-02-11T14:23:27.352Z,11.77
2023-02-11T14:24:28.784Z,14.57
2023-02-11T14:25:30.287Z,14.90
2023-02-11T14:26:50.111Z,14.18
2023-02-11T14:27:57.581Z,13.52